Time;durP1;ratioP1;P1;durP2;ratioP2;P2;SDS_P1;SDS_P2;PMS_P1;PMS_P2;Temp;Humidity;BMP_temperature;BMP_pressure;BME280_temperature;BME280_humidity;BME280_pressure;Samples;Min_cycle;Max_cycle;Signal;HPM_P1;HPM_P2
2021/10/15 00:00:24;;;;;;;13.53;8.80;;;;;;;11.93;59.26;98369.13;8249622;28;20229;-67
2021/10/15 00:04:28;;;;;;;12.03;8.70;;;;;;;11.91;59.24;98363.16;8220075;29;20489;-66
2021/10/15 00:08:31;;;;;;;9.07;8.13;;;;;;;11.91;59.59;98370.94;8220050;29;20231;-66
2021/10/15 00:12:34;;;;;;;8.70;7.80;;;;;;;11.95;59.48;98356.09;8220010;29;20401;-66
2021/10/15 00:16:37;;;;;;;9.17;8.17;;;;;;;11.90;59.19;98344.16;8220012;29;20227;-66
2021/10/15 00:20:41;;;;;;;12.67;9.17;;;;;;;11.66;60.12;98347.78;8219927;29;20233;-66
2021/10/15 00:24:44;;;;;;;10.27;8.03;;;;;;;11.82;59.16;98345.38;8219883;29;20233;-66
2021/10/15 00:28:47;;;;;;;10.17;8.60;;;;;;;11.59;59.94;98347.19;8219785;29;20391;-66
2021/10/15 00:32:50;;;;;;;9.53;8.43;;;;;;;11.41;60.44;98337.59;8219651;29;20203;-66
2021/10/15 00:36:54;;;;;;;9.90;7.90;;;;;;;11.48;60.21;98337.28;8219721;28;20210;-66
2021/10/15 00:40:58;;;;;;;9.37;7.90;;;;;;;11.50;60.37;98332.88;8219697;28;20251;-66
2021/10/15 00:45:01;;;;;;;10.60;8.17;;;;;;;11.56;59.40;98329.19;8222711;28;20225;-66
2021/10/15 00:49:04;;;;;;;9.37;7.93;;;;;;;11.57;59.21;98332.59;8225611;29;20207;-66
2021/10/15 00:53:08;;;;;;;11.07;8.20;;;;;;;11.62;59.34;98328.06;8243698;28;20498;-67
2021/10/15 00:57:13;;;;;;;11.93;8.73;;;;;;;11.63;58.60;98327.16;8257218;28;20388;-66
2021/10/15 01:01:16;;;;;;;12.20;8.47;;;;;;;11.61;58.73;98314.25;8257201;28;20230;-66
2021/10/15 01:05:19;;;;;;;10.27;8.43;;;;;;;11.43;59.53;98313.28;8257060;28;20226;-66
2021/10/15 01:09:24;;;;;;;8.90;7.23;;;;;;;11.53;59.10;98309.38;8256811;28;20245;-67
2021/10/15 01:13:27;;;;;;;10.57;8.10;;;;;;;11.43;59.06;98304.66;8256704;28;20257;-66
2021/10/15 01:17:30;;;;;;;8.10;7.30;;;;;;;11.42;59.37;98290.00;8256960;28;20202;-66
2021/10/15 01:21:34;;;;;;;9.47;8.10;;;;;;;11.16;59.95;98286.78;8256585;28;20230;-66
2021/10/15 01:25:37;;;;;;;8.53;7.47;;;;;;;11.38;59.39;98283.28;8256765;28;20539;-66
2021/10/15 01:29:40;;;;;;;9.23;6.63;;;;;;;11.40;58.76;98274.50;8256380;28;20386;-66
2021/10/15 01:33:43;;;;;;;9.47;6.90;;;;;;;11.34;58.72;98273.00;8256153;28;20202;-66
2021/10/15 01:37:47;;;;;;;9.43;7.27;;;;;;;11.34;58.52;98267.00;8256441;28;20202;-66
2021/10/15 01:41:50;;;;;;;9.20;7.10;;;;;;;11.31;58.75;98264.56;8256142;28;20231;-66
2021/10/15 01:45:53;;;;;;;7.60;6.90;;;;;;;11.35;58.67;98255.72;8255789;28;20202;-66
2021/10/15 01:49:56;;;;;;;11.23;6.97;;;;;;;11.32;58.59;98258.44;8255909;28;20210;-66
2021/10/15 01:54:00;;;;;;;8.00;6.73;;;;;;;11.33;58.51;98250.59;8255129;28;20513;-66
2021/10/15 01:58:03;;;;;;;8.27;7.33;;;;;;;11.31;58.51;98233.44;8255489;28;20217;-66
2021/10/15 02:02:06;;;;;;;8.00;7.07;;;;;;;11.25;58.67;98234.53;8255564;28;20498;-66
2021/10/15 02:06:10;;;;;;;8.27;7.00;;;;;;;11.33;58.83;98226.44;8255189;28;20214;-66
2021/10/15 02:10:15;;;;;;;8.10;7.30;;;;;;;11.24;59.15;98221.63;8255006;28;20250;-66
2021/10/15 02:14:18;;;;;;;8.87;7.30;;;;;;;11.12;59.69;98220.41;8255292;28;20217;-66
2021/10/15 02:18:22;;;;;;;8.30;7.10;;;;;;;11.18;59.52;98214.13;8254892;28;20210;-66
2021/10/15 02:22:25;;;;;;;9.77;7.27;;;;;;;11.11;59.69;98214.38;8255077;28;20203;-66
2021/10/15 02:26:29;;;;;;;9.30;7.70;;;;;;;11.03;60.07;98208.69;8254562;28;20202;-66
2021/10/15 02:30:32;;;;;;;8.00;7.20;;;;;;;11.10;59.38;98202.34;8254442;28;20218;-66
2021/10/15 02:34:35;;;;;;;9.47;7.47;;;;;;;11.21;58.88;98211.38;8254571;28;20414;-66
2021/10/15 02:38:38;;;;;;;7.50;6.80;;;;;;;11.19;58.88;98195.91;8254151;28;20230;-66
2021/10/15 02:42:42;;;;;;;8.07;7.07;;;;;;;11.12;58.52;98192.75;8254147;28;20209;-66
2021/10/15 02:46:45;;;;;;;7.63;6.60;;;;;;;11.12;59.11;98195.34;8254017;28;20202;-66
2021/10/15 02:50:48;;;;;;;8.23;6.63;;;;;;;11.11;59.00;98190.22;8253834;28;20242;-66
2021/10/15 02:54:51;;;;;;;9.90;6.53;;;;;;;11.15;58.31;98178.78;8253857;28;20234;-66
2021/10/15 02:58:55;;;;;;;6.57;5.97;;;;;;;11.13;58.22;98178.03;8253520;28;20260;-67
2021/10/15 03:02:58;;;;;;;6.37;5.77;;;;;;;11.09;58.39;98181.66;8253486;28;20202;-66
2021/10/15 03:07:01;;;;;;;6.60;6.00;;;;;;;11.08;58.04;98180.81;8252824;28;20319;-66
2021/10/15 03:11:04;;;;;;;6.33;5.70;;;;;;;11.02;58.44;98183.66;8253127;28;20242;-66
2021/10/15 03:15:10;;;;;;;7.37;5.83;;;;;;;11.01;58.65;98178.56;8253233;28;20202;-66
2021/10/15 03:19:12;;;;;;;6.77;6.07;;;;;;;10.90;59.06;98179.00;8253459;28;20225;-66
2021/10/15 03:23:15;;;;;;;7.17;6.40;;;;;;;10.85;59.13;98171.44;8252843;28;20202;-66
2021/10/15 03:27:18;;;;;;;7.67;6.23;;;;;;;10.91;59.15;98167.75;8252864;28;20408;-66
2021/10/15 03:31:22;;;;;;;8.70;6.70;;;;;;;10.85;59.06;98162.81;8252827;28;20206;-66
2021/10/15 03:35:25;;;;;;;9.90;6.17;;;;;;;10.92;58.60;98159.06;8252760;28;20226;-66
2021/10/15 03:39:28;;;;;;;6.80;6.03;;;;;;;10.82;58.82;98156.03;8252527;28;20230;-66
2021/10/15 03:43:31;;;;;;;7.40;6.67;;;;;;;10.76;59.23;98167.47;8252521;28;20202;-66
2021/10/15 03:47:36;;;;;;;6.30;5.80;;;;;;;10.86;58.93;98157.56;8252461;28;20384;-66
2021/10/15 03:51:39;;;;;;;8.30;5.90;;;;;;;10.85;58.32;98163.69;8252423;28;20298;-66
2021/10/15 03:55:42;;;;;;;6.60;5.90;;;;;;;10.93;58.31;98153.81;8252307;28;20202;-66
2021/10/15 03:59:45;;;;;;;6.13;5.53;;;;;;;10.83;58.05;98149.91;8252493;28;20230;-66
2021/10/15 04:03:49;;;;;;;6.97;6.20;;;;;;;10.82;57.69;98150.00;8251969;28;20217;-66
2021/10/15 04:07:53;;;;;;;6.23;5.57;;;;;;;10.66;57.88;98145.47;8252292;28;20294;-67
2021/10/15 04:11:56;;;;;;;6.13;5.60;;;;;;;10.58;58.07;98142.34;8251858;28;20264;-66
2021/10/15 04:16:01;;;;;;;7.03;6.23;;;;;;;10.67;58.08;98154.06;8251936;28;20206;-66
2021/10/15 04:20:07;;;;;;;6.10;5.50;;;;;;;10.68;58.21;98148.84;8257049;28;20293;-66
2021/10/15 04:24:10;;;;;;;6.17;5.67;;;;;;;10.42;58.49;98144.72;8258414;28;20206;-66
2021/10/15 04:28:13;;;;;;;6.33;5.73;;;;;;;10.30;59.01;98142.59;8258145;28;20206;-66
2021/10/15 04:32:16;;;;;;;7.23;6.53;;;;;;;10.34;58.83;98142.44;8258046;28;20206;-66
2021/10/15 04:36:24;;;;;;;8.90;5.77;;;;;;;10.43;58.29;98128.28;8258130;28;20213;-68
2021/10/15 04:40:27;;;;;;;7.90;7.10;;;;;;;10.47;58.22;98127.25;8257756;28;20419;-68
2021/10/15 04:44:30;;;;;;;7.53;6.83;;;;;;;10.48;57.77;98121.16;8257850;28;20209;-68
2021/10/15 04:48:33;;;;;;;6.77;6.07;;;;;;;10.45;57.51;98123.03;8257550;28;20209;-68
2021/10/15 04:52:37;;;;;;;6.43;5.33;;;;;;;10.45;57.78;98120.44;8257330;28;20206;-68
2021/10/15 04:56:40;;;;;;;7.27;6.03;;;;;;;10.36;58.15;98113.91;8257272;28;20215;-68
2021/10/15 05:00:43;;;;;;;7.77;5.90;;;;;;;10.39;58.26;98115.53;8256938;28;20230;-68
2021/10/15 05:04:46;;;;;;;6.87;6.27;;;;;;;10.30;58.23;98108.94;8257084;28;20202;-68
2021/10/15 05:09:02;;;;;;;8.27;6.90;;;;;;;10.30;58.10;98108.94;8263750;28;20237;-69
2021/10/15 05:13:05;;;;;;;7.47;6.63;;;;;;;10.25;58.41;98103.97;8274061;28;20221;-68
2021/10/15 05:17:08;;;;;;;7.00;6.20;;;;;;;10.25;58.66;98103.97;8289069;28;20202;-68
2021/10/15 05:21:11;;;;;;;7.70;7.00;;;;;;;10.31;58.04;98105.50;8288893;28;20225;-68
2021/10/15 05:25:16;;;;;;;7.70;7.00;;;;;;;10.35;57.41;98102.69;8284014;28;20205;-68
2021/10/15 05:29:19;;;;;;;7.40;6.70;;;;;;;10.31;57.14;98102.91;8239938;28;20195;-68
2021/10/15 05:33:21;;;;;;;7.27;6.30;;;;;;;10.27;57.40;98094.38;8255361;28;20201;-68
2021/10/15 05:37:24;;;;;;;7.60;6.90;;;;;;;10.31;57.67;98085.63;8255025;28;20206;-68
2021/10/15 05:41:28;;;;;;;8.73;7.77;;;;;;;10.22;57.89;98087.72;8255713;28;20226;-68
2021/10/15 05:45:31;;;;;;;8.23;7.40;;;;;;;10.30;58.19;98085.63;8256119;28;20210;-68
2021/10/15 05:49:39;;;;;;;8.50;7.60;;;;;;;10.27;57.90;98089.22;8255768;28;20216;-68
2021/10/15 05:53:43;;;;;;;8.50;6.90;;;;;;;10.31;57.38;98089.97;8232810;28;20203;-68
2021/10/15 06:02:08;;;;;;;7.87;7.10;;;;;;;10.25;57.05;98083.25;8223373;29;20226;-68
2021/10/15 06:15:05;;;;;;;8.07;7.03;;;;;;;10.32;58.43;98092.50;8173320;29;20225;-68
2021/10/15 06:19:10;;;;;;;8.90;7.20;;;;;;;10.41;58.57;98096.44;8222738;29;20382;-68
2021/10/15 06:23:14;;;;;;;8.33;7.03;;;;;;;10.58;58.11;98090.53;8222681;29;20418;-68
2021/10/15 06:27:18;;;;;;;9.40;6.93;;;;;;;10.66;58.59;98087.63;8222669;29;20203;-68
2021/10/15 06:31:22;;;;;;;11.23;7.60;;;;;;;10.49;58.93;98088.34;8222514;29;20217;-68
2021/10/15 06:35:25;;;;;;;8.53;7.27;;;;;;;10.82;58.28;98086.06;8222522;29;20274;-68
2021/10/15 06:39:28;;;;;;;9.73;7.40;;;;;;;10.65;59.03;98093.72;8222284;29;20203;-68
2021/10/15 06:43:31;;;;;;;9.80;8.47;;;;;;;10.72;58.99;98097.75;8222098;28;20227;-68
2021/10/15 06:47:38;;;;;;;9.80;8.43;;;;;;;10.99;58.73;98097.47;8222191;28;20397;-68
2021/10/15 06:51:41;;;;;;;11.87;8.23;;;;;;;11.08;58.68;98100.50;8221781;28;20529;-68
2021/10/15 06:55:47;;;;;;;12.80;8.57;;;;;;;11.23;58.69;98100.69;8221861;28;20499;-68
2021/10/15 06:59:52;;;;;;;11.43;7.87;;;;;;;11.37;58.29;98098.34;8221657;29;20209;-68
2021/10/15 07:03:57;;;;;;;8.53;7.50;;;;;;;11.61;58.09;98109.31;8221407;29;20203;-68
2021/10/15 07:08:00;;;;;;;8.67;7.77;;;;;;;11.64;57.88;98111.78;8221520;29;20249;-68
2021/10/15 07:12:03;;;;;;;14.43;7.47;;;;;;;11.71;58.17;98113.19;8221139;29;20419;-68
2021/10/15 07:16:06;;;;;;;10.77;7.80;;;;;;;11.69;58.11;98109.81;8221021;29;20203;-68
2021/10/15 07:20:13;;;;;;;9.40;7.10;;;;;;;11.95;58.21;98112.13;8220977;28;20207;-68
2021/10/15 07:24:16;;;;;;;9.93;8.20;;;;;;;11.79;57.95;98117.19;8221042;29;20203;-68
2021/10/15 07:28:19;;;;;;;11.93;7.97;;;;;;;11.89;58.32;98113.22;8220840;29;20207;-68
2021/10/15 07:32:22;;;;;;;11.13;8.40;;;;;;;11.76;58.88;98112.97;8220911;29;20215;-68
2021/10/15 07:36:26;;;;;;;9.80;8.20;;;;;;;11.87;58.89;98104.69;8220562;29;20242;-68
2021/10/15 07:40:29;;;;;;;10.10;8.80;;;;;;;11.95;58.88;98120.75;8220561;29;20233;-68
2021/10/15 07:44:33;;;;;;;11.23;8.50;;;;;;;12.00;58.44;98123.16;8220983;29;20526;-68
2021/10/15 07:48:40;;;;;;;10.87;8.57;;;;;;;11.96;58.89;98116.41;8221101;28;20207;-69
2021/10/15 07:52:44;;;;;;;12.43;8.47;;;;;;;12.39;57.81;98112.56;8251969;28;20206;-69
2021/10/15 07:56:47;;;;;;;12.67;9.50;;;;;;;12.25;58.15;98123.63;8262743;28;20198;-69
2021/10/15 08:00:50;;;;;;;11.30;7.83;;;;;;;13.44;55.57;98126.28;8284104;28;20236;-67
2021/10/15 08:04:53;;;;;;;11.33;7.63;;;;;;;13.91;54.13;98123.78;8284441;28;20527;-67
2021/10/15 08:08:57;;;;;;;10.33;7.70;;;;;;;14.53;53.03;98115.94;8284478;28;20551;-67
2021/10/15 08:13:01;;;;;;;10.20;7.70;;;;;;;14.97;51.21;98118.56;8283928;28;20232;-66
2021/10/15 08:17:04;;;;;;;9.13;7.47;;;;;;;14.76;51.40;98125.06;8284246;28;20519;-66
2021/10/15 08:21:13;;;;;;;8.27;7.37;;;;;;;14.75;51.19;98132.03;8284133;28;20229;-67
2021/10/15 08:25:17;;;;;;;9.23;8.13;;;;;;;14.94;51.05;98120.50;8284092;28;20413;-66
2021/10/15 08:29:20;;;;;;;9.93;7.80;;;;;;;15.20;50.44;98114.56;8283974;28;20208;-66
2021/10/15 08:33:23;;;;;;;8.40;7.60;;;;;;;15.18;50.53;98118.22;8284061;28;20224;-66
2021/10/15 08:37:25;;;;;;;10.93;8.82;;;;;;;15.53;50.05;98118.63;8283198;28;20422;-69
2021/10/15 08:41:30;;;;;;;10.33;7.63;;;;;;;16.44;49.05;98131.19;8283931;28;20252;-68
2021/10/15 08:45:35;;;;;;;13.47;6.47;;;;;;;17.26;48.26;98120.50;8284123;28;20224;-70
2021/10/15 08:49:38;;;;;;;11.77;8.23;;;;;;;16.90;45.70;98116.84;8283772;28;20398;-70
2021/10/15 08:53:52;;;;;;;9.83;6.83;;;;;;;17.51;45.85;98120.47;8260966;28;20213;-70
2021/10/15 08:57:59;;;;;;;10.13;7.13;;;;;;;16.85;46.44;98116.31;8251519;28;20274;-70
2021/10/15 09:02:12;;;;;;;9.93;7.13;;;;;;;17.72;44.35;98110.25;8251288;28;20230;-70
2021/10/15 09:06:16;;;;;;;8.73;6.17;;;;;;;17.92;46.04;98106.25;8254700;28;20207;-63
2021/10/15 09:10:21;;;;;;;15.30;7.50;;;;;;;17.89;45.00;98103.00;8256735;28;20242;-63
2021/10/15 09:14:26;;;;;;;7.60;6.60;;;;;;;18.47;43.80;98106.59;8256976;28;20210;-63
2021/10/15 09:18:32;;;;;;;8.90;6.43;;;;;;;18.53;43.23;98102.69;8256854;28;20203;-65
2021/10/15 09:22:36;;;;;;;8.03;5.80;;;;;;;19.12;42.55;98093.88;8256885;28;20226;-63
2021/10/15 09:26:39;;;;;;;8.97;5.43;;;;;;;19.74;41.31;98089.91;8285003;28;20201;-65
2021/10/15 09:30:48;;;;;;;11.17;6.13;;;;;;;20.26;39.75;98087.50;8301755;28;20199;-66
2021/10/15 09:34:53;;;;;;;6.40;5.53;;;;;;;20.45;39.70;98073.66;8304180;28;20193;-67
2021/10/15 09:38:56;;;;;;;5.90;5.30;;;;;;;18.71;41.10;98069.81;8303913;28;20216;-66
2021/10/15 09:43:02;;;;;;;6.87;5.63;;;;;;;19.20;41.04;98080.97;8303649;28;20225;-68
2021/10/15 09:47:18;;;;;;;5.83;4.47;;;;;;;19.05;41.08;98063.81;8303804;28;20474;-68
2021/10/15 09:51:27;;;;;;;4.33;3.17;;;;;;;18.71;41.56;98072.44;8301265;28;20205;-69
2021/10/15 09:55:31;;;;;;;5.30;3.17;;;;;;;18.68;41.15;98066.63;8307502;28;20507;-68
2021/10/15 09:59:42;;;;;;;26.13;17.90;;;;;;;18.78;41.98;98082.47;8320267;28;20394;-68
2021/10/15 10:03:47;;;;;;;7.03;4.20;;;;;;;18.68;41.42;98080.56;8319847;28;20230;-66
2021/10/15 10:07:52;;;;;;;4.97;3.43;;;;;;;18.40;42.54;98065.22;8320162;28;20579;-67
2021/10/15 10:11:55;;;;;;;10.33;3.90;;;;;;;18.07;41.76;98072.03;8319651;28;20237;-65
2021/10/15 10:15:58;;;;;;;6.27;3.37;;;;;;;18.05;45.92;98077.38;8319533;28;20391;-65
2021/10/15 10:20:10;;;;;;;8.30;4.10;;;;;;;17.88;42.09;98075.97;8319593;28;20201;-65
2021/10/15 10:24:16;;;;;;;5.07;3.60;;;;;;;17.95;42.62;98071.13;8319534;28;20295;-65
2021/10/15 10:28:20;;;;;;;5.40;4.60;;;;;;;17.87;42.46;98073.47;8319270;28;20208;-65
2021/10/15 10:32:24;;;;;;;8.30;3.40;;;;;;;17.93;43.00;98071.25;8319144;28;20205;-65
2021/10/15 10:36:31;;;;;;;8.13;3.37;;;;;;;17.87;43.93;98065.59;8319138;28;20235;-65
2021/10/15 10:40:34;;;;;;;4.70;3.07;;;;;;;17.63;43.83;98066.41;8319168;28;20387;-66
2021/10/15 10:44:38;;;;;;;6.33;3.20;;;;;;;18.02;43.55;98063.66;8319074;28;20231;-65
2021/10/15 10:49:10;;;;;;;6.47;5.07;;;;;;;18.50;41.68;98056.53;8318274;28;20435;-65
2021/10/15 10:53:14;;;;;;;7.93;6.10;;;;;;;18.48;42.29;98053.19;8279859;28;20807;-65
2021/10/15 10:57:27;;;;;;;4.47;3.50;;;;;;;18.34;41.54;98049.00;8253510;28;20206;-63
2021/10/15 11:01:31;;;;;;;6.30;3.50;;;;;;;18.50;41.92;98045.22;8253349;28;20397;-63
2021/10/15 11:05:39;;;;;;;5.23;3.60;;;;;;;18.35;42.16;98044.59;8253567;28;20498;-64
2021/10/15 11:09:47;;;;;;;4.73;2.90;;;;;;;18.51;42.00;98049.53;8253283;28;20455;-63
2021/10/15 11:13:51;;;;;;;5.43;2.90;;;;;;;18.56;42.80;98055.22;8253700;28;20293;-66
2021/10/15 11:17:54;;;;;;;5.23;3.10;;;;;;;18.84;43.23;98050.56;8253131;28;20270;-69
2021/10/15 11:22:02;;;;;;;7.87;3.77;;;;;;;18.64;42.74;98045.03;8253077;28;20551;-66
2021/10/15 11:26:07;;;;;;;4.17;2.70;;;;;;;18.92;43.18;98050.78;8253060;28;20270;-63
2021/10/15 11:30:11;;;;;;;3.87;3.10;;;;;;;18.49;43.76;98044.38;8258273;28;20741;-63
2021/10/15 11:34:15;;;;;;;7.13;3.30;;;;;;;18.42;44.25;98034.47;8305347;28;20203;-63
2021/10/15 11:38:19;;;;;;;5.97;3.00;;;;;;;18.44;44.11;98032.56;8317617;28;20205;-63
2021/10/15 11:42:24;;;;;;;4.27;2.90;;;;;;;18.92;43.15;98019.31;8317601;28;20250;-64
2021/10/15 11:46:31;;;;;;;4.93;3.00;;;;;;;19.02;42.82;98025.53;8317452;28;20208;-64
2021/10/15 11:50:49;;;;;;;5.33;3.03;;;;;;;18.88;43.25;98020.50;8317408;28;20209;-63
2021/10/15 11:54:53;;;;;;;4.30;2.50;;;;;;;18.69;43.46;98006.13;8252479;28;20207;-68
2021/10/15 11:59:08;;;;;;;3.90;2.80;;;;;;;18.43;43.55;98010.78;8252387;28;20202;-63
2021/10/15 12:03:11;;;;;;;4.87;2.50;;;;;;;18.45;43.24;98011.50;8252177;28;20234;-63
2021/10/15 12:07:14;;;;;;;4.23;2.73;;;;;;;18.45;43.67;98019.34;8252097;28;20624;-64
2021/10/15 12:11:23;;;;;;;5.47;2.90;;;;;;;18.56;44.30;98011.50;8251709;28;20234;-63
2021/10/15 12:15:28;;;;;;;4.77;2.80;;;;;;;18.50;44.23;98004.09;8252105;28;20289;-63
2021/10/15 12:19:32;;;;;;;3.73;2.43;;;;;;;18.68;44.01;98011.53;8252077;28;20207;-64
2021/10/15 12:23:50;;;;;;;4.87;2.17;;;;;;;18.43;43.76;98005.53;8252192;28;20226;-67
2021/10/15 12:27:53;;;;;;;2.87;1.90;;;;;;;18.05;44.62;98000.53;8252194;28;20420;-63
2021/10/15 12:32:14;;;;;;;3.20;1.90;;;;;;;18.05;43.55;98006.63;8271232;28;20194;-64
2021/10/15 12:36:24;;;;;;;2.90;1.90;;;;;;;18.28;44.83;98011.94;8298840;28;20199;-64
2021/10/15 12:40:30;;;;;;;2.60;1.83;;;;;;;18.10;44.10;98006.28;8300750;28;20396;-64
2021/10/15 12:44:33;;;;;;;3.57;2.50;;;;;;;17.85;43.88;98005.47;8305462;28;20220;-64
2021/10/15 12:48:38;;;;;;;2.40;1.70;;;;;;;17.87;44.33;98002.72;8305369;28;20493;-66
2021/10/15 12:52:42;;;;;;;2.50;1.70;;;;;;;17.91;44.62;98001.56;8302819;28;20202;-66
2021/10/15 12:56:45;;;;;;;5.63;2.00;;;;;;;18.05;44.18;98006.63;8302375;28;20194;-65
2021/10/15 13:00:50;;;;;;;6.43;2.40;;;;;;;18.03;43.52;98000.66;8289040;28;20206;-66
2021/10/15 13:04:57;;;;;;;5.67;2.60;;;;;;;18.54;42.98;97996.81;8257183;28;20233;-66
2021/10/15 13:09:01;;;;;;;3.67;2.50;;;;;;;17.82;43.49;98005.66;8257058;28;20424;-66
2021/10/15 13:13:04;;;;;;;4.23;2.70;;;;;;;17.63;44.05;98000.94;8256796;28;20230;-65
2021/10/15 13:17:09;;;;;;;7.20;3.77;;;;;;;17.73;44.83;97996.69;8257092;28;20202;-65
2021/10/15 13:21:14;;;;;;;5.23;2.87;;;;;;;17.51;45.33;98001.81;8256711;28;20206;-65
2021/10/15 13:25:17;;;;;;;4.63;2.37;;;;;;;17.47;45.87;97998.56;8256752;28;20226;-65
2021/10/15 13:29:20;;;;;;;5.23;2.30;;;;;;;17.47;46.78;98003.81;8256542;28;20524;-65
2021/10/15 13:33:24;;;;;;;5.60;3.00;;;;;;;17.28;46.57;98013.94;8256357;28;20395;-63
2021/10/15 13:37:31;;;;;;;4.70;3.23;;;;;;;17.79;46.04;98008.50;8256218;28;20203;-63
2021/10/15 13:41:56;;;;;;;4.60;2.30;;;;;;;17.89;46.26;98003.44;8256209;28;20203;-64
2021/10/15 13:46:15;;;;;;;4.43;2.50;;;;;;;17.89;45.96;98004.28;8255985;28;20337;-63
2021/10/15 13:50:18;;;;;;;4.23;2.77;;;;;;;17.46;45.41;97994.31;8255061;28;20207;-64
2021/10/15 13:54:22;;;;;;;6.17;2.97;;;;;;;17.58;45.76;97993.41;8257537;28;20206;-64
2021/10/15 13:58:28;;;;;;;4.60;2.60;;;;;;;17.83;45.57;97996.03;8255288;28;20207;-63
2021/10/15 14:02:32;;;;;;;3.77;2.80;;;;;;;17.79;45.77;97991.00;8255492;28;20202;-63
2021/10/15 14:06:35;;;;;;;5.63;2.50;;;;;;;17.60;46.28;97995.91;8255266;28;20210;-63
2021/10/15 14:10:42;;;;;;;5.00;2.90;;;;;;;17.45;46.83;97987.38;8254994;28;20245;-63
2021/10/15 14:14:45;;;;;;;4.93;3.10;;;;;;;17.39;47.03;97991.28;8255259;28;20502;-63
2021/10/15 14:18:48;;;;;;;5.53;2.70;;;;;;;17.30;47.58;97997.16;8254766;28;20209;-63
2021/10/15 14:22:54;;;;;;;5.33;3.10;;;;;;;17.26;47.60;98006.19;8254883;28;20310;-63
2021/10/15 14:26:58;;;;;;;3.97;2.73;;;;;;;17.28;47.91;97993.00;8298452;28;20512;-64
2021/10/15 14:31:01;;;;;;;4.30;2.50;;;;;;;17.11;48.36;97986.34;8319426;28;20205;-64
2021/10/15 14:35:04;;;;;;;5.60;3.00;;;;;;;16.87;48.38;97987.13;8319242;28;20392;-63
2021/10/15 14:39:07;;;;;;;5.00;3.27;;;;;;;16.81;48.57;97992.72;8318960;28;20393;-63
2021/10/15 14:43:11;;;;;;;5.53;3.30;;;;;;;16.80;48.53;97991.91;8319385;28;20229;-63
2021/10/15 14:47:14;;;;;;;4.30;3.17;;;;;;;16.76;48.85;97989.63;8318864;28;20208;-64
2021/10/15 14:51:17;;;;;;;6.60;4.10;;;;;;;16.65;49.24;97989.53;8311240;28;20226;-64
2021/10/15 14:55:21;;;;;;;5.53;3.42;;;;;;;16.98;48.26;97989.84;8252975;28;20439;-69
2021/10/15 14:59:25;;;;;;;5.13;3.20;;;;;;;16.69;49.16;98001.44;8253853;28;20202;-69
2021/10/15 15:03:28;;;;;;;8.03;3.87;;;;;;;16.65;49.29;97997.38;8252949;28;20233;-66
2021/10/15 15:07:31;;;;;;;9.57;3.93;;;;;;;16.65;49.88;97998.19;8277651;28;20524;-71
2021/10/15 15:11:34;;;;;;;6.23;3.60;;;;;;;16.77;49.41;97997.38;8307506;28;20302;-69
2021/10/15 15:15:38;;;;;;;12.60;5.67;;;;;;;16.59;50.21;97999.44;8318267;28;20308;-68
2021/10/15 15:19:41;;;;;;;6.77;4.40;;;;;;;16.56;49.98;98002.28;8317844;28;20207;-68
2021/10/15 15:23:44;;;;;;;9.63;4.20;;;;;;;16.55;50.11;98010.22;8317971;28;20392;-70
2021/10/15 15:27:48;;;;;;;6.20;3.23;;;;;;;16.63;50.46;98010.53;8301300;28;20198;-69
2021/10/15 15:31:52;;;;;;;7.70;3.27;;;;;;;16.63;50.33;98007.09;8306716;28;20203;-70
2021/10/15 15:35:55;;;;;;;5.00;3.43;;;;;;;16.60;50.49;98005.50;8312257;28;20208;-70
2021/10/15 15:39:58;;;;;;;4.60;3.53;;;;;;;16.56;50.48;98004.03;8317381;28;20208;-70
2021/10/15 15:44:03;;;;;;;7.43;4.67;;;;;;;16.43;51.12;98001.44;8317221;28;20228;-69
2021/10/15 15:48:09;;;;;;;7.50;5.10;;;;;;;16.39;50.86;98011.28;8317539;28;20201;-69
2021/10/15 15:52:12;;;;;;;6.50;3.83;;;;;;;16.35;51.38;98016.78;8296263;28;20205;-68
2021/10/15 15:56:15;;;;;;;5.60;4.20;;;;;;;16.32;51.75;98015.22;8284438;28;20516;-69
2021/10/15 16:00:20;;;;;;;8.17;5.90;;;;;;;16.27;52.00;98019.91;8286579;28;20216;-72
2021/10/15 16:04:24;;;;;;;11.07;7.77;;;;;;;16.19;52.34;98012.59;8317110;28;20394;-72
2021/10/15 16:08:27;;;;;;;8.60;6.50;;;;;;;16.15;52.66;98013.75;8313966;28;20239;-72
2021/10/15 16:12:30;;;;;;;10.63;6.03;;;;;;;16.04;52.53;98018.84;8316583;28;20227;-73
2021/10/15 16:16:33;;;;;;;8.07;6.20;;;;;;;16.04;52.91;98021.44;8322012;28;20213;-72
2021/10/15 16:20:37;;;;;;;15.57;9.07;;;;;;;16.00;53.16;98022.59;8320655;28;20397;-67
2021/10/15 16:24:41;;;;;;;18.50;12.30;;;;;;;15.94;53.64;98043.88;8323067;28;20235;-71
2021/10/15 16:28:44;;;;;;;16.33;11.23;;;;;;;15.87;53.99;98040.00;8293687;28;20205;-67
2021/10/15 16:32:47;;;;;;;13.30;9.23;;;;;;;15.83;53.74;98045.41;8291807;28;20239;-68
2021/10/15 16:36:51;;;;;;;11.90;8.60;;;;;;;15.82;53.76;98053.31;8312826;28;20212;-68
2021/10/15 16:40:57;;;;;;;14.77;10.07;;;;;;;15.81;53.95;98065.56;8299395;28;20208;-67
2021/10/15 16:45:04;;;;;;;11.20;8.20;;;;;;;15.82;53.53;98066.38;8291517;28;20226;-68
2021/10/15 16:49:10;;;;;;;10.33;5.30;;;;;;;15.83;53.98;98065.47;8313686;28;20197;-68
2021/10/15 16:53:14;;;;;;;5.67;4.30;;;;;;;15.80;53.82;98069.13;8284133;23;20245;-79
2021/10/15 16:57:17;;;;;;;7.33;4.50;;;;;;;15.77;54.33;98071.91;8257638;28;20213;-79
2021/10/15 17:01:21;;;;;;;21.97;16.00;;;;;;;15.74;54.25;98085.16;8257613;28;20203;-79
2021/10/15 17:05:24;;;;;;;21.73;17.23;;;;;;;15.74;54.82;98081.72;8257441;28;20249;-79
2021/10/15 17:09:29;;;;;;;11.70;7.90;;;;;;;15.71;54.44;98087.13;8257359;28;20500;-79
2021/10/15 17:13:32;;;;;;;9.70;7.23;;;;;;;15.73;54.42;98093.06;8257235;28;20202;-79
2021/10/15 17:17:35;;;;;;;13.37;8.70;;;;;;;15.68;54.84;98095.13;8257206;28;20202;-79
2021/10/15 17:21:38;;;;;;;9.87;5.37;;;;;;;15.61;54.62;98098.13;8256988;28;20295;-79
2021/10/15 17:25:43;;;;;;;10.00;4.77;;;;;;;15.66;54.47;98100.44;8255891;28;20226;-79
2021/10/15 17:29:46;;;;;;;5.87;4.50;;;;;;;15.62;54.64;98104.19;8256871;28;20199;-79
2021/10/15 17:33:49;;;;;;;8.57;4.67;;;;;;;15.57;54.75;98109.72;8256732;28;20213;-79
2021/10/15 17:37:52;;;;;;;6.90;5.30;;;;;;;15.62;54.70;98104.19;8256541;28;20318;-79
2021/10/15 17:41:57;;;;;;;7.83;5.07;;;;;;;15.60;54.86;98111.28;8258166;28;20213;-79
2021/10/15 17:46:02;;;;;;;7.13;4.80;;;;;;;15.58;55.18;98119.19;8259679;28;20226;-79
2021/10/15 17:50:06;;;;;;;7.03;4.77;;;;;;;15.58;55.08;98126.19;8258861;28;20411;-79
2021/10/15 17:54:09;;;;;;;6.57;5.03;;;;;;;15.55;54.94;98129.81;8256274;28;20249;-79
2021/10/15 17:58:13;;;;;;;6.63;5.23;;;;;;;15.58;55.25;98139.25;8256127;28;20210;-79
2021/10/15 18:02:17;;;;;;;6.47;5.23;;;;;;;15.43;55.76;98130.59;8256346;28;20209;-78
2021/10/15 18:06:20;;;;;;;8.53;6.70;;;;;;;15.51;55.54;98138.78;8255993;28;20234;-79
2021/10/15 18:10:23;;;;;;;9.80;6.23;;;;;;;15.53;55.96;98151.72;8256047;28;20209;-78
2021/10/15 18:14:27;;;;;;;8.70;6.20;;;;;;;15.51;55.88;98153.59;8255689;28;20213;-79
2021/10/15 18:18:30;;;;;;;13.63;11.87;;;;;;;15.50;55.59;98155.38;8255628;28;20215;-79
2021/10/15 18:22:33;;;;;;;9.80;7.20;;;;;;;15.47;56.16;98158.16;8255489;28;20229;-79
2021/10/15 18:26:36;;;;;;;79.83;57.47;;;;;;;15.53;56.26;98159.56;8255249;28;20230;-79
2021/10/15 18:30:41;;;;;;;15.27;8.50;;;;;;;15.44;56.59;98158.38;8255303;28;20414;-79
2021/10/15 18:34:46;;;;;;;12.87;10.63;;;;;;;15.44;56.38;98160.97;8254931;28;20206;-78
2021/10/15 18:38:51;;;;;;;9.73;6.20;;;;;;;15.49;56.31;98164.13;8255061;28;20209;-79
2021/10/15 18:43:14;;;;;;;7.70;5.90;;;;;;;15.40;56.47;98164.69;8254918;28;20203;-79
2021/10/15 18:47:22;;;;;;;9.10;5.83;;;;;;;15.45;56.44;98176.53;8254716;28;20533;-79
2021/10/15 18:51:25;;;;;;;8.63;5.50;;;;;;;15.45;56.27;98173.91;8254545;28;20458;-78
2021/10/15 18:55:29;;;;;;;6.33;5.00;;;;;;;15.45;56.60;98176.53;8254861;28;20210;-79
2021/10/15 18:59:32;;;;;;;8.17;5.43;;;;;;;15.43;56.57;98172.34;8254392;28;20500;-79
2021/10/15 19:03:36;;;;;;;9.37;5.80;;;;;;;15.45;56.68;98175.69;8254349;28;20482;-79
2021/10/15 19:07:39;;;;;;;8.03;5.40;;;;;;;15.36;57.12;98169.25;8254016;28;20233;-78
2021/10/15 19:11:44;;;;;;;8.93;5.20;;;;;;;15.33;57.15;98177.28;8254031;28;20209;-79
2021/10/15 19:15:46;;;;;;;8.97;5.33;;;;;;;15.33;56.98;98177.28;8254046;28;20206;-79
2021/10/15 19:19:51;;;;;;;9.60;6.47;;;;;;;15.32;57.34;98179.97;8254047;28;20202;-79